Time;durP1;ratioP1;P1;durP2;ratioP2;P2;SDS_P1;SDS_P2;PMS_P1;PMS_P2;Temp;Humidity;BMP_temperature;BMP_pressure;BME280_temperature;BME280_humidity;BME280_pressure;Samples;Min_cycle;Max_cycle;Signal;HPM_P1;HPM_P2
2021/07/30 00:00:02;;;;;;;4.10;3.50;;;15.40;99.90;;;;;;5014556;28;20685;-68
2021/07/30 00:02:28;;;;;;;3.13;2.93;;;15.40;99.90;;;;;;5014547;28;20604;-69
2021/07/30 00:04:54;;;;;;;4.73;3.50;;;15.40;99.90;;;;;;5014600;28;20956;-69
2021/07/30 00:07:20;;;;;;;5.53;4.00;;;15.40;99.90;;;;;;5014286;28;20589;-69
2021/07/30 00:09:47;;;;;;;4.03;3.30;;;15.40;99.90;;;;;;5014592;28;20596;-69
2021/07/30 00:12:13;;;;;;;4.00;3.67;;;15.30;99.90;;;;;;5014544;28;20659;-69
2021/07/30 00:14:39;;;;;;;4.23;3.83;;;15.30;99.90;;;;;;5014324;28;20568;-69
2021/07/30 00:17:06;;;;;;;4.20;3.80;;;15.30;99.90;;;;;;5014182;28;20600;-69
2021/07/30 00:19:33;;;;;;;4.20;3.80;;;15.30;99.90;;;;;;5014259;28;20966;-69
2021/07/30 00:22:00;;;;;;;5.03;3.63;;;15.30;99.90;;;;;;5014611;28;20996;-68
2021/07/30 00:24:26;;;;;;;5.00;3.70;;;15.30;99.90;;;;;;5014138;28;20617;-68
2021/07/30 00:26:52;;;;;;;3.33;3.10;;;15.40;99.90;;;;;;5014115;28;20627;-68
2021/07/30 00:29:19;;;;;;;4.50;4.20;;;15.40;99.90;;;;;;5014055;28;20594;-68
2021/07/30 00:31:45;;;;;;;4.83;3.53;;;15.30;99.90;;;;;;5014242;28;21199;-68
2021/07/30 00:34:11;;;;;;;4.40;3.97;;;15.30;99.90;;;;;;5014104;28;20613;-68
2021/07/30 00:36:38;;;;;;;4.40;3.80;;;15.20;99.90;;;;;;5013980;28;20617;-68
2021/07/30 00:39:04;;;;;;;5.47;3.80;;;15.10;99.90;;;;;;5013767;28;20668;-69
2021/07/30 00:41:35;;;;;;;4.87;4.33;;;15.10;99.90;;;;;;5013931;28;20593;-68
2021/07/30 00:44:02;;;;;;;4.30;3.70;;;15.20;99.90;;;;;;5014550;28;21132;-67
2021/07/30 00:46:29;;;;;;;5.97;4.00;;;15.30;99.90;;;;;;5013734;28;20620;-67
2021/07/30 00:48:55;;;;;;;3.70;3.50;;;15.30;99.90;;;;;;5031569;28;20654;-67
2021/07/30 00:51:22;;;;;;;3.53;3.20;;;15.20;99.90;;;;;;5053411;28;20635;-67
2021/07/30 00:53:50;;;;;;;4.00;3.70;;;15.30;99.90;;;;;;5053978;28;20626;-67
2021/07/30 00:56:17;;;;;;;6.50;3.50;;;15.20;99.90;;;;;;5053690;28;20639;-68
2021/07/30 00:58:43;;;;;;;5.43;3.77;;;15.20;99.90;;;;;;5053958;28;21173;-68
2021/07/30 01:01:10;;;;;;;4.70;3.60;;;15.10;99.90;;;;;;5053486;28;20599;-67
2021/07/30 01:03:37;;;;;;;4.70;3.73;;;15.10;99.90;;;;;;5053314;28;20599;-67
2021/07/30 01:06:04;;;;;;;4.10;3.80;;;15.10;99.90;;;;;;5053618;28;20623;-68
2021/07/30 01:08:30;;;;;;;4.23;3.80;;;15.00;99.90;;;;;;5053215;28;20615;-68
2021/07/30 01:10:56;;;;;;;4.13;3.83;;;15.00;99.90;;;;;;5053267;28;20591;-68
2021/07/30 01:13:23;;;;;;;5.60;3.67;;;15.00;99.90;;;;;;5053413;28;20638;-68
2021/07/30 01:15:49;;;;;;;4.30;3.77;;;15.00;99.90;;;;;;5052213;28;20629;-68
2021/07/30 01:18:15;;;;;;;4.10;3.80;;;15.00;99.90;;;;;;5053296;28;20595;-70
2021/07/30 01:20:44;;;;;;;3.77;3.47;;;15.00;99.90;;;;;;5053389;28;21157;-68
2021/07/30 01:23:11;;;;;;;5.20;4.10;;;14.90;99.90;;;;;;5053345;28;21184;-67
2021/07/30 01:25:37;;;;;;;3.90;3.60;;;14.80;99.90;;;;;;5053226;28;20603;-67
2021/07/30 01:28:04;;;;;;;4.63;4.33;;;14.80;99.90;;;;;;5053445;28;20617;-67
2021/07/30 01:30:30;;;;;;;5.67;4.03;;;14.70;99.90;;;;;;5053214;28;20591;-68
2021/07/30 01:32:57;;;;;;;5.73;4.03;;;14.70;99.90;;;;;;5053306;28;20633;-67
2021/07/30 01:35:23;;;;;;;4.17;3.83;;;14.80;99.90;;;;;;5053504;28;20592;-67
2021/07/30 01:37:49;;;;;;;3.60;3.40;;;14.80;99.90;;;;;;5053446;28;20626;-67
2021/07/30 01:40:21;;;;;;;4.30;3.90;;;14.80;99.90;;;;;;5053251;28;20635;-67
2021/07/30 01:42:47;;;;;;;4.10;3.80;;;14.80;99.90;;;;;;5052744;28;20638;-67
2021/07/30 01:45:13;;;;;;;4.00;3.70;;;14.80;99.90;;;;;;5053128;28;20641;-67
2021/07/30 01:47:39;;;;;;;4.70;4.30;;;14.80;99.90;;;;;;5053292;28;20646;-67
2021/07/30 01:50:06;;;;;;;4.13;3.50;;;14.80;99.90;;;;;;5054078;28;20650;-67
2021/07/30 01:52:32;;;;;;;3.50;3.30;;;14.70;99.90;;;;;;5056753;28;21180;-67
2021/07/30 01:54:59;;;;;;;4.00;3.70;;;14.70;99.90;;;;;;5056947;28;20626;-67
2021/07/30 01:57:27;;;;;;;4.00;3.70;;;14.70;99.90;;;;;;5056989;28;20611;-67
2021/07/30 01:59:54;;;;;;;5.93;3.80;;;14.70;99.90;;;;;;5056729;28;20977;-67
2021/07/30 02:02:20;;;;;;;5.27;4.13;;;14.60;99.90;;;;;;5056700;28;21137;-67
2021/07/30 02:04:46;;;;;;;4.20;3.87;;;14.40;99.90;;;;;;5056613;28;20618;-67
2021/07/30 02:07:12;;;;;;;4.33;4.03;;;14.40;99.90;;;;;;5056687;28;20979;-67
2021/07/30 02:09:39;;;;;;;5.90;3.43;;;14.50;99.90;;;;;;5056262;28;20591;-67
2021/07/30 02:12:05;;;;;;;4.50;4.10;;;14.50;99.90;;;;;;5056873;28;21052;-67
2021/07/30 02:14:32;;;;;;;4.30;3.80;;;14.50;99.90;;;;;;5056220;28;20622;-67
2021/07/30 02:16:58;;;;;;;4.50;4.20;;;14.60;99.90;;;;;;5056122;28;20641;-67
2021/07/30 02:19:25;;;;;;;7.97;4.93;;;14.60;99.90;;;;;;5056284;28;20610;-67
2021/07/30 02:21:53;;;;;;;4.43;4.13;;;14.70;99.90;;;;;;5056412;28;20637;-67
2021/07/30 02:24:20;;;;;;;5.33;3.97;;;14.80;99.90;;;;;;5056191;28;20615;-67
2021/07/30 02:26:47;;;;;;;3.83;3.53;;;14.80;99.90;;;;;;5054843;28;20622;-67
2021/07/30 02:29:13;;;;;;;4.20;3.90;;;14.90;99.90;;;;;;5056041;28;20641;-67
2021/07/30 02:31:40;;;;;;;4.27;3.97;;;15.00;99.90;;;;;;5055614;28;20630;-67
2021/07/30 02:34:07;;;;;;;4.37;3.97;;;15.00;99.90;;;;;;5056082;28;20614;-67
2021/07/30 02:36:34;;;;;;;5.10;3.77;;;15.00;99.90;;;;;;5055930;28;21001;-67
2021/07/30 02:39:00;;;;;;;5.10;3.87;;;15.00;99.90;;;;;;5055837;28;20657;-67
2021/07/30 02:41:26;;;;;;;9.87;4.10;;;15.00;99.90;;;;;;5054730;28;20985;-67
2021/07/30 02:43:53;;;;;;;4.40;3.40;;;15.00;99.90;;;;;;5056118;28;20709;-67
2021/07/30 02:46:20;;;;;;;4.10;3.80;;;14.90;99.90;;;;;;5055821;28;20595;-67
2021/07/30 02:48:46;;;;;;;5.00;4.20;;;14.90;99.90;;;;;;5055601;28;20738;-67
2021/07/30 02:51:14;;;;;;;4.37;3.97;;;15.00;99.90;;;;;;5055849;28;20686;-67
2021/07/30 02:53:41;;;;;;;5.07;4.57;;;14.90;99.90;;;;;;5055637;28;20618;-67
2021/07/30 02:56:08;;;;;;;4.30;4.00;;;14.80;99.90;;;;;;5055651;28;21157;-67
2021/07/30 02:58:38;;;;;;;9.50;4.07;;;14.90;99.90;;;;;;5055771;28;20959;-67
2021/07/30 03:01:05;;;;;;;4.23;3.93;;;14.80;99.90;;;;;;5055508;28;21125;-67
2021/07/30 03:03:31;;;;;;;4.33;3.93;;;14.80;99.90;;;;;;5055466;28;20615;-67
2021/07/30 03:05:59;;;;;;;3.73;3.33;;;14.80;99.90;;;;;;5055079;28;20986;-67
2021/07/30 03:08:27;;;;;;;3.53;3.33;;;14.80;99.90;;;;;;5055004;28;20626;-68
2021/07/30 03:10:53;;;;;;;4.07;3.77;;;14.70;99.90;;;;;;5037095;28;20623;-68
2021/07/30 03:13:19;;;;;;;3.30;3.00;;;14.70;99.90;;;;;;5054840;28;21209;-68
2021/07/30 03:15:46;;;;;;;3.80;3.50;;;14.50;99.90;;;;;;5054476;28;20615;-68
2021/07/30 03:18:12;;;;;;;4.73;3.87;;;14.60;99.90;;;;;;5055205;28;20623;-68
2021/07/30 03:20:38;;;;;;;4.77;4.40;;;14.50;99.90;;;;;;5054871;28;20598;-68
2021/07/30 03:23:05;;;;;;;5.13;4.20;;;14.50;99.90;;;;;;5054853;28;20606;-68
2021/07/30 03:25:31;;;;;;;4.10;3.70;;;14.60;99.90;;;;;;5055095;28;20615;-67
2021/07/30 03:27:58;;;;;;;4.60;4.20;;;14.60;99.90;;;;;;5054772;28;20645;-67
2021/07/30 03:30:25;;;;;;;3.87;3.40;;;14.60;99.90;;;;;;5054852;28;21149;-68
2021/07/30 03:32:51;;;;;;;3.40;3.20;;;14.60;99.90;;;;;;5054574;28;20662;-68
2021/07/30 03:35:17;;;;;;;4.90;4.40;;;14.70;99.90;;;;;;5054833;28;20955;-68
2021/07/30 03:37:46;;;;;;;6.17;3.23;;;14.70;99.90;;;;;;5054657;28;20690;-68
2021/07/30 03:40:12;;;;;;;6.93;4.13;;;14.70;99.90;;;;;;5054618;28;20996;-68
2021/07/30 03:42:39;;;;;;;4.10;3.70;;;14.70;99.90;;;;;;5054471;28;20642;-68
2021/07/30 03:45:06;;;;;;;4.60;4.00;;;14.60;99.90;;;;;;5054419;28;20599;-67
2021/07/30 03:47:32;;;;;;;6.90;3.80;;;14.50;99.90;;;;;;5054178;28;20690;-68
2021/07/30 03:49:59;;;;;;;5.43;3.50;;;14.60;99.90;;;;;;5054242;28;20651;-68
2021/07/30 03:52:25;;;;;;;3.93;3.43;;;14.60;99.90;;;;;;5054564;28;20658;-68
2021/07/30 03:54:51;;;;;;;3.40;3.20;;;14.60;99.90;;;;;;5054497;28;20607;-68
2021/07/30 03:57:17;;;;;;;3.87;3.57;;;14.70;99.90;;;;;;5054642;28;20614;-68
2021/07/30 03:59:44;;;;;;;12.63;4.30;;;14.70;99.90;;;;;;5054349;28;20602;-67
2021/07/30 04:02:10;;;;;;;4.97;3.87;;;14.60;99.90;;;;;;5054003;28;20610;-67
2021/07/30 04:04:37;;;;;;;4.50;4.00;;;14.60;99.90;;;;;;5054294;28;20627;-67
2021/07/30 04:07:03;;;;;;;4.37;3.70;;;14.70;99.90;;;;;;5054637;28;20604;-68
2021/07/30 04:09:30;;;;;;;4.67;3.70;;;14.70;99.90;;;;;;5054326;28;20610;-68
2021/07/30 04:11:56;;;;;;;3.83;3.53;;;14.60;99.90;;;;;;5053871;28;20651;-68
2021/07/30 04:14:22;;;;;;;4.17;3.77;;;14.50;99.90;;;;;;5053745;28;20609;-68
2021/07/30 04:16:48;;;;;;;4.90;4.40;;;14.60;99.90;;;;;;5054180;28;20602;-68
2021/07/30 04:19:15;;;;;;;6.83;3.67;;;14.70;99.90;;;;;;5053975;28;20615;-67
2021/07/30 04:21:41;;;;;;;4.13;3.70;;;14.60;99.90;;;;;;5053861;28;21158;-67
2021/07/30 04:24:07;;;;;;;4.20;3.90;;;14.70;99.90;;;;;;5054035;28;20622;-67
2021/07/30 04:26:34;;;;;;;3.53;3.33;;;14.70;99.90;;;;;;5054189;28;20582;-67
2021/07/30 04:29:00;;;;;;;6.63;3.33;;;14.60;99.90;;;;;;5053977;28;20627;-67
2021/07/30 04:31:26;;;;;;;3.63;3.43;;;14.60;99.90;;;;;;5053657;28;20599;-67
2021/07/30 04:33:53;;;;;;;4.80;4.00;;;14.60;99.90;;;;;;5053725;28;20619;-67
2021/07/30 04:36:19;;;;;;;4.10;3.90;;;14.60;99.90;;;;;;5053403;28;20562;-67
2021/07/30 04:38:45;;;;;;;4.63;3.70;;;14.60;99.90;;;;;;5053458;28;21154;-67
2021/07/30 04:41:12;;;;;;;3.83;3.63;;;14.70;99.90;;;;;;5053911;28;20607;-67
2021/07/30 04:43:38;;;;;;;4.20;3.90;;;14.70;99.90;;;;;;5054004;28;20630;-68
2021/07/30 04:46:13;;;;;;;5.20;4.47;;;14.70;99.90;;;;;;5053607;28;20611;-68
2021/07/30 04:48:39;;;;;;;4.30;4.00;;;14.50;99.90;;;;;;5053609;28;21051;-68
2021/07/30 04:51:05;;;;;;;9.13;4.87;;;14.40;99.90;;;;;;5053934;28;20611;-68
2021/07/30 04:53:31;;;;;;;4.40;4.00;;;14.30;99.90;;;;;;5054540;28;20677;-68
2021/07/30 04:55:58;;;;;;;3.57;3.37;;;14.30;99.90;;;;;;5053449;28;20595;-68
2021/07/30 04:58:24;;;;;;;4.97;4.03;;;14.40;99.90;;;;;;5053567;28;20664;-68
2021/07/30 05:00:50;;;;;;;4.93;3.90;;;14.20;99.90;;;;;;5052796;28;20629;-68
2021/07/30 05:03:17;;;;;;;4.77;4.37;;;14.20;99.90;;;;;;5036975;28;21047;-68
2021/07/30 05:05:43;;;;;;;4.50;4.10;;;14.20;99.90;;;;;;5052761;28;20613;-68
2021/07/30 05:08:09;;;;;;;5.43;4.60;;;14.20;99.90;;;;;;5052909;28;20710;-67
2021/07/30 05:10:35;;;;;;;4.40;4.00;;;14.20;99.90;;;;;;5052731;28;21024;-68
2021/07/30 05:13:02;;;;;;;4.90;4.30;;;14.30;99.90;;;;;;5040661;28;20742;-67
2021/07/30 05:15:28;;;;;;;5.40;4.90;;;14.40;99.90;;;;;;5051004;28;20627;-67
2021/07/30 05:17:54;;;;;;;10.30;4.63;;;14.40;99.90;;;;;;5053135;28;20730;-67
2021/07/30 05:20:21;;;;;;;4.90;4.40;;;14.50;99.90;;;;;;5052725;28;20619;-67
2021/07/30 05:22:47;;;;;;;6.40;4.23;;;14.60;99.90;;;;;;5052805;28;20634;-67
2021/07/30 05:25:14;;;;;;;8.80;5.30;;;14.70;99.90;;;;;;5042024;28;20963;-67
2021/07/30 05:27:40;;;;;;;5.10;4.70;;;14.70;99.90;;;;;;5056275;28;21129;-67
2021/07/30 05:30:07;;;;;;;5.80;4.37;;;14.60;99.90;;;;;;5056532;28;20626;-67
2021/07/30 05:32:33;;;;;;;4.70;4.30;;;14.70;99.90;;;;;;5056402;28;20688;-67
2021/07/30 05:34:59;;;;;;;11.10;4.87;;;14.90;99.90;;;;;;5056241;28;20646;-67
2021/07/30 05:37:25;;;;;;;5.70;4.77;;;15.10;99.90;;;;;;5057033;28;20597;-67
2021/07/30 05:39:52;;;;;;;5.47;4.17;;;15.40;99.90;;;;;;5056646;28;20629;-67
2021/07/30 05:42:18;;;;;;;10.00;4.50;;;15.50;99.90;;;;;;5056782;28;20622;-67
2021/07/30 05:44:44;;;;;;;7.53;4.43;;;15.70;99.90;;;;;;5041908;28;20624;-67
2021/07/30 05:47:10;;;;;;;6.10;4.37;;;15.90;99.90;;;;;;5056221;28;20634;-67
2021/07/30 05:49:37;;;;;;;6.80;4.13;;;16.00;99.90;;;;;;5041459;28;20654;-67
2021/07/30 05:52:03;;;;;;;6.87;4.10;;;16.20;99.90;;;;;;5056136;28;20623;-67
2021/07/30 05:54:32;;;;;;;4.17;3.70;;;16.20;99.90;;;;;;5055991;28;20633;-67
2021/07/30 05:56:58;;;;;;;5.80;5.17;;;16.30;99.90;;;;;;5056191;28;20635;-67
2021/07/30 05:59:26;;;;;;;6.07;4.53;;;16.40;99.90;;;;;;5056088;28;20615;-67
2021/07/30 06:01:53;;;;;;;10.60;5.07;;;16.50;99.90;;;;;;5046802;28;20603;-68
2021/07/30 06:04:19;;;;;;;13.53;4.40;;;16.50;99.90;;;;;;5051078;28;20629;-68
2021/07/30 06:06:46;;;;;;;8.23;3.80;;;16.60;99.90;;;;;;5055875;28;20710;-67
2021/07/30 06:09:13;;;;;;;10.20;4.13;;;16.80;99.90;;;;;;5055731;28;20630;-67
2021/07/30 06:11:39;;;;;;;5.83;3.87;;;16.80;99.90;;;;;;5055939;28;20626;-67
2021/07/30 06:14:05;;;;;;;6.97;4.50;;;16.90;99.90;;;;;;5055779;28;20651;-67
2021/07/30 06:16:32;;;;;;;8.00;4.80;;;17.10;99.90;;;;;;5056036;28;20633;-67
2021/07/30 06:18:58;;;;;;;6.20;3.73;;;17.20;99.90;;;;;;5055471;28;20622;-67
2021/07/30 06:21:24;;;;;;;4.57;3.97;;;17.40;99.90;;;;;;5055417;28;20619;-68
2021/07/30 06:23:50;;;;;;;4.73;4.33;;;17.30;99.90;;;;;;5055522;28;20618;-68
2021/07/30 06:26:17;;;;;;;4.33;4.03;;;17.20;99.90;;;;;;5054209;28;20630;-68
2021/07/30 06:28:43;;;;;;;5.50;5.00;;;17.20;99.90;;;;;;5055501;28;20630;-68
2021/07/30 06:31:10;;;;;;;5.80;4.60;;;17.20;99.90;;;;;;5055570;28;21169;-68
2021/07/30 06:33:36;;;;;;;6.10;5.37;;;17.40;99.90;;;;;;5055667;28;20655;-68
2021/07/30 06:36:04;;;;;;;6.07;4.60;;;17.40;99.90;;;;;;5047457;28;20647;-68
2021/07/30 06:38:30;;;;;;;9.37;4.40;;;17.60;99.90;;;;;;5049298;28;20629;-68
2021/07/30 06:40:57;;;;;;;7.30;4.27;;;17.70;99.90;;;;;;5055349;28;20637;-68
2021/07/30 06:43:23;;;;;;;5.00;4.50;;;17.90;99.90;;;;;;5055206;28;20635;-68
2021/07/30 06:45:49;;;;;;;5.00;4.60;;;18.00;99.90;;;;;;5055156;28;20618;-68
2021/07/30 06:48:16;;;;;;;6.00;5.37;;;18.20;99.90;;;;;;5054232;28;20666;-68
2021/07/30 06:50:44;;;;;;;5.70;5.10;;;18.30;99.90;;;;;;5041704;28;20579;-68
2021/07/30 06:53:10;;;;;;;7.73;4.50;;;18.30;99.90;;;;;;5054867;28;20757;-68
2021/07/30 06:55:36;;;;;;;6.37;5.33;;;18.40;99.90;;;;;;5054526;28;20619;-68
2021/07/30 06:58:02;;;;;;;5.87;5.20;;;18.40;99.90;;;;;;5055005;28;20944;-68
2021/07/30 07:00:29;;;;;;;4.40;4.00;;;18.50;99.90;;;;;;5052716;28;20759;-67
2021/07/30 07:02:55;;;;;;;5.00;4.00;;;18.60;99.90;;;;;;5055201;28;20204;-68
2021/07/30 07:05:21;;;;;;;11.03;4.47;;;18.80;99.90;;;;;;5049788;28;20694;-68
2021/07/30 07:07:49;;;;;;;6.13;5.23;;;19.00;99.90;;;;;;5035510;28;20968;-68
2021/07/30 07:10:15;;;;;;;4.70;4.30;;;18.90;99.90;;;;;;5035238;28;21154;-68
2021/07/30 07:12:42;;;;;;;6.30;4.97;;;18.90;99.90;;;;;;5035145;28;20762;-68
2021/07/30 07:15:09;;;;;;;5.43;4.97;;;19.10;99.90;;;;;;5035645;28;20624;-68
2021/07/30 07:17:35;;;;;;;7.23;5.70;;;19.20;99.90;;;;;;5035340;28;20615;-68
2021/07/30 07:20:02;;;;;;;5.40;5.00;;;19.20;99.90;;;;;;5035657;28;20591;-68
2021/07/30 07:22:30;;;;;;;8.40;4.23;;;19.30;99.90;;;;;;5035334;28;20624;-68
2021/07/30 07:24:57;;;;;;;5.63;4.60;;;19.10;99.90;;;;;;5035025;28;20600;-68
2021/07/30 07:27:23;;;;;;;5.63;5.13;;;19.00;99.90;;;;;;5035260;28;20624;-68
2021/07/30 07:29:50;;;;;;;4.73;4.33;;;19.00;99.90;;;;;;5035240;28;20916;-68
2021/07/30 07:32:16;;;;;;;7.20;4.47;;;19.30;99.90;;;;;;5035249;28;20636;-68
2021/07/30 07:34:43;;;;;;;4.47;4.07;;;19.50;99.90;;;;;;5035165;28;20616;-68
2021/07/30 07:37:09;;;;;;;4.57;4.13;;;19.80;99.90;;;;;;5034499;28;20642;-68
2021/07/30 07:39:36;;;;;;;6.50;3.57;;;20.00;99.90;;;;;;5034628;28;20623;-68
2021/07/30 07:42:02;;;;;;;4.73;4.10;;;20.10;96.20;;;;;;5034435;28;20610;-68
2021/07/30 07:44:28;;;;;;;6.13;4.50;;;19.90;23.00;;;;;;5034780;28;20731;-68
2021/07/30 07:46:57;;;;;;;5.90;3.53;;;20.10;92.50;;;;;;5034650;28;21131;-68
2021/07/30 07:49:24;;;;;;;7.43;4.20;;;20.20;72.60;;;;;;5034498;28;20659;-68
2021/07/30 07:51:50;;;;;;;4.47;4.07;;;20.30;45.10;;;;;;5034377;28;20707;-68
2021/07/30 07:54:16;;;;;;;4.77;4.00;;;20.50;64.20;;;;;;5034274;28;20640;-68
2021/07/30 07:56:42;;;;;;;5.00;4.60;;;20.60;1.00;;;;;;5034272;28;21123;-68
2021/07/30 07:59:09;;;;;;;4.27;3.97;;;20.70;1.00;;;;;;5034700;28;21151;-68
2021/07/30 08:01:35;;;;;;;4.40;3.30;;;20.80;1.00;;;;;;5034296;28;20616;-68
2021/07/30 08:04:02;;;;;;;3.73;3.43;;;20.80;1.00;;;;;;5034382;28;20626;-68
2021/07/30 08:06:28;;;;;;;5.60;3.60;;;20.80;1.00;;;;;;5034437;28;20620;-68
2021/07/30 08:08:55;;;;;;;3.70;3.40;;;20.90;1.00;;;;;;5033989;28;20619;-68
2021/07/30 08:11:21;;;;;;;5.60;3.90;;;20.80;1.00;;;;;;5033830;28;20647;-68
2021/07/30 08:13:48;;;;;;;4.17;3.73;;;21.00;1.00;;;;;;5033908;28;20643;-68
2021/07/30 08:16:14;;;;;;;4.80;3.60;;;21.10;1.00;;;;;;5034295;28;20612;-68
2021/07/30 08:18:40;;;;;;;3.67;3.37;;;21.30;1.00;;;;;;5034227;28;20720;-68
2021/07/30 08:21:07;;;;;;;3.40;3.10;;;21.50;1.00;;;;;;5033838;28;20612;-68
2021/07/30 08:23:33;;;;;;;5.23;3.40;;;21.50;1.00;;;;;;5033801;28;20604;-68
2021/07/30 08:25:59;;;;;;;3.10;2.90;;;21.70;1.00;;;;;;5033681;28;20592;-68
2021/07/30 08:28:26;;;;;;;3.50;3.30;;;21.80;1.00;;;;;;5033754;28;20932;-68
2021/07/30 08:30:53;;;;;;;3.63;3.20;;;22.20;1.00;;;;;;5049146;28;20631;-68
2021/07/30 08:33:20;;;;;;;3.97;3.67;;;22.20;1.00;;;;;;5033882;28;20666;-68
2021/07/30 08:35:46;;;;;;;4.07;3.77;;;21.90;1.00;;;;;;5033524;28;20604;-68
2021/07/30 08:38:12;;;;;;;4.23;3.93;;;21.90;1.00;;;;;;5033735;28;21150;-68
2021/07/30 08:40:40;;;;;;;4.87;4.47;;;22.10;1.00;;;;;;5033403;28;20665;-68
2021/07/30 08:43:11;;;;;;;8.00;4.77;;;22.20;1.00;;;;;;5033871;28;20624;-68
2021/07/30 08:45:37;;;;;;;4.90;4.13;;;22.40;1.00;;;;;;5033467;28;20571;-68
2021/07/30 08:48:04;;;;;;;4.30;4.00;;;22.60;1.00;;;;;;5033250;28;20608;-68
2021/07/30 08:50:32;;;;;;;5.17;4.70;;;22.40;1.00;;;;;;5033590;28;20623;-68
2021/07/30 08:53:05;;;;;;;7.30;4.40;;;22.60;1.00;;;;;;5033156;28;20632;-68
2021/07/30 08:55:32;;;;;;;13.60;4.60;;;22.70;1.00;;;;;;5033715;28;20614;-68
2021/07/30 08:57:58;;;;;;;6.70;4.43;;;22.40;1.00;;;;;;5033026;28;20600;-68
2021/07/30 09:00:25;;;;;;;4.23;3.70;;;22.70;1.00;;;;;;5032868;28;20959;-67
2021/07/30 09:02:54;;;;;;;6.30;4.43;;;22.90;1.00;;;;;;5033222;28;20608;-66
2021/07/30 09:05:24;;;;;;;6.43;3.97;;;23.00;1.00;;;;;;5033421;28;20635;-66
2021/07/30 09:07:51;;;;;;;4.87;4.37;;;22.80;1.00;;;;;;5033354;28;20630;-67
2021/07/30 09:10:41;;;;;;;4.20;3.50;;;23.10;1.00;;;;;;5033165;28;20632;-67
2021/07/30 09:13:27;;;;;;;6.43;4.00;;;23.20;1.00;;;;;;5033228;28;20652;-67
2021/07/30 09:16:10;;;;;;;4.10;3.70;;;23.30;1.00;;;;;;5033198;28;21157;-67
2021/07/30 09:18:44;;;;;;;3.77;3.57;;;23.40;1.00;;;;;;5033682;28;20619;-67
2021/07/30 09:21:33;;;;;;;5.13;4.17;;;23.30;1.00;;;;;;5033334;28;20624;-67
2021/07/30 09:24:03;;;;;;;9.13;5.20;;;23.70;1.00;;;;;;5037536;28;20587;-67
2021/07/30 09:26:37;;;;;;;4.90;4.30;;;24.00;1.00;;;;;;5052457;28;21173;-67
2021/07/30 09:29:14;;;;;;;5.33;3.70;;;23.80;99.90;;;;;;5052414;28;20591;-66
2021/07/30 09:31:52;;;;;;;4.97;3.83;;;23.70;99.90;;;;;;5052207;28;20991;-67
2021/07/30 09:34:23;;;;;;;4.40;4.00;;;23.50;99.90;;;;;;5052526;28;21068;-67
2021/07/30 09:37:01;;;;;;;3.40;3.20;;;23.40;99.90;;;;;;5052685;28;20637;-67
2021/07/30 09:39:43;;;;;;;3.50;3.20;;;23.80;99.90;;;;;;5038795;28;20643;-67
2021/07/30 09:42:11;;;;;;;4.17;3.43;;;24.10;99.90;;;;;;5050968;28;20638;-67
2021/07/30 09:44:51;;;;;;;2.90;2.70;;;23.80;99.90;;;;;;5052405;28;20649;-67
2021/07/30 09:47:20;;;;;;;9.20;3.17;;;24.10;99.90;;;;;;5050947;28;20619;-67
2021/07/30 09:50:03;;;;;;;3.00;2.80;;;24.10;99.90;;;;;;5051862;28;21225;-67
2021/07/30 09:52:36;;;;;;;2.80;2.60;;;23.80;99.90;;;;;;5038108;28;20669;-67
2021/07/30 09:55:05;;;;;;;3.03;2.83;;;24.40;99.90;;;;;;5052478;28;20629;-67
2021/07/30 09:57:34;;;;;;;3.70;3.20;;;24.80;99.90;;;;;;5052136;28;20622;-67
2021/07/30 10:00:00;;;;;;;4.03;3.33;;;24.80;99.90;;;;;;5052207;28;20642;-67
2021/07/30 10:02:28;;;;;;;2.93;2.73;;;24.80;99.90;;;;;;5052778;28;21134;-67
2021/07/30 10:04:55;;;;;;;5.03;2.90;;;25.40;99.90;;;;;;5052908;28;20635;-67
2021/07/30 10:07:23;;;;;;;2.80;2.70;;;25.50;99.90;;;;;;5052610;28;20591;-67
2021/07/30 10:09:56;;;;;;;3.10;2.90;;;24.90;99.90;;;;;;5052991;28;21301;-67
2021/07/30 10:12:23;;;;;;;3.63;3.37;;;25.20;99.90;;;;;;5056028;28;20575;-67
2021/07/30 10:14:51;;;;;;;10.33;3.70;;;24.90;99.90;;;;;;5055910;28;21017;-67
2021/07/30 10:17:26;;;;;;;3.40;3.10;;;24.80;99.90;;;;;;5056494;28;20956;-67
2021/07/30 10:19:54;;;;;;;3.37;3.17;;;24.80;99.90;;;;;;5056498;28;20578;-67
2021/07/30 10:22:22;;;;;;;7.43;3.70;;;24.90;99.90;;;;;;5056042;28;20633;-67
2021/07/30 10:24:52;;;;;;;4.33;4.03;;;25.10;99.90;;;;;;5055738;28;20631;-67
2021/07/30 10:27:24;;;;;;;3.73;3.53;;;25.50;99.90;;;;;;5056111;28;20630;-67
2021/07/30 10:30:01;;;;;;;2.80;2.63;;;25.30;99.90;;;;;;5056132;28;20590;-67
2021/07/30 10:32:50;;;;;;;3.90;3.60;;;25.40;99.90;;;;;;5055937;28;20700;-67
2021/07/30 10:35:26;;;;;;;2.90;2.77;;;25.40;99.90;;;;;;5055860;28;20591;-67
2021/07/30 10:38:12;;;;;;;4.13;3.73;;;25.00;99.90;;;;;;5056006;28;20629;-67
2021/07/30 10:40:40;;;;;;;3.40;3.13;;;25.30;99.90;;;;;;5056017;28;20627;-67
2021/07/30 10:43:14;;;;;;;3.70;3.50;;;25.70;99.90;;;;;;5056013;28;20617;-67
2021/07/30 10:45:42;;;;;;;4.20;3.90;;;26.00;99.90;;;;;;5055838;28;20621;-68
2021/07/30 10:48:11;;;;;;;4.03;3.60;;;26.10;99.90;;;;;;5055357;28;20633;-67
2021/07/30 10:50:51;;;;;;;3.30;2.83;;;26.20;99.90;;;;;;5055489;28;20953;-68
2021/07/30 10:53:36;;;;;;;6.80;4.27;;;26.10;99.90;;;;;;5055601;28;21199;-68
2021/07/30 10:56:07;;;;;;;9.60;4.67;;;25.70;99.90;;;;;;5055588;28;20970;-68
2021/07/30 10:58:39;;;;;;;4.40;4.10;;;25.80;99.90;;;;;;5055396;28;20595;-68
2021/07/30 11:01:06;;;;;;;5.17;4.33;;;25.90;99.90;;;;;;5055420;28;20611;-68
2021/07/30 11:03:51;;;;;;;3.90;3.63;;;25.60;99.90;;;;;;5055644;28;20625;-68
2021/07/30 11:06:25;;;;;;;4.10;3.70;;;25.80;99.90;;;;;;5055424;28;20625;-68
2021/07/30 11:09:04;;;;;;;7.23;4.03;;;25.90;99.90;;;;;;5055341;28;20625;-68
2021/07/30 11:11:50;;;;;;;5.30;3.77;;;26.00;99.90;;;;;;5055606;28;20610;-69
2021/07/30 11:14:30;;;;;;;4.13;3.83;;;26.00;99.90;;;;;;5055104;28;20622;-69
2021/07/30 11:16:59;;;;;;;8.93;4.00;;;26.10;99.90;;;;;;5055767;28;20623;-68
2021/07/30 11:19:27;;;;;;;4.97;4.53;;;26.20;99.90;;;;;;5055173;28;20599;-66
2021/07/30 11:21:54;;;;;;;4.53;3.80;;;25.90;99.90;;;;;;5053201;28;20627;-66
2021/07/30 11:24:21;;;;;;;4.63;4.30;;;26.40;99.90;;;;;;5054841;28;20611;-67
2021/07/30 11:26:47;;;;;;;4.03;3.73;;;25.90;99.90;;;;;;5054958;28;20615;-67
2021/07/30 11:29:16;;;;;;;4.23;3.93;;;27.00;99.90;;;;;;5053834;28;20619;-67
2021/07/30 11:32:06;;;;;;;4.50;4.20;;;27.30;99.90;;;;;;5054930;28;21149;-67
2021/07/30 11:34:34;;;;;;;4.10;3.80;;;27.20;99.90;;;;;;5054548;28;21125;-67
2021/07/30 11:37:06;;;;;;;3.93;3.70;;;27.70;99.90;;;;;;5055182;28;20626;-67
2021/07/30 11:39:50;;;;;;;4.93;4.43;;;26.90;99.90;;;;;;5054670;28;20719;-67
2021/07/30 11:42:26;;;;;;;5.93;3.40;;;26.30;99.90;;;;;;5054747;28;20562;-68
2021/07/30 11:44:55;;;;;;;4.70;4.40;;;26.50;99.90;;;;;;5054791;28;20625;-68
2021/07/30 11:47:23;;;;;;;4.13;3.93;;;26.70;99.90;;;;;;5054501;28;20631;-68
2021/07/30 11:50:10;;;;;;;4.97;4.57;;;26.30;99.90;;;;;;5054332;28;20651;-67
2021/07/30 11:52:38;;;;;;;7.60;4.40;;;26.40;99.90;;;;;;5054614;28;20586;-68
2021/07/30 11:55:15;;;;;;;5.27;4.83;;;26.70;99.90;;;;;;5054496;28;20650;-68
2021/07/30 11:57:42;;;;;;;5.47;3.90;;;26.80;99.90;;;;;;5054234;28;20563;-68
2021/07/30 12:00:09;;;;;;;5.17;4.77;;;27.10;99.90;;;;;;5052919;28;21007;-68
2021/07/30 12:02:35;;;;;;;4.63;4.30;;;27.30;99.90;;;;;;5054772;28;20603;-68
2021/07/30 12:05:02;;;;;;;5.50;4.67;;;27.00;99.90;;;;;;5054129;28;20599;-68
2021/07/30 12:07:38;;;;;;;5.50;4.97;;;26.80;99.90;;;;;;5054269;28;20599;-68
2021/07/30 12:10:07;;;;;;;4.50;4.20;;;27.40;99.90;;;;;;5054134;28;20622;-68
2021/07/30 12:12:41;;;;;;;5.50;4.50;;;27.90;99.90;;;;;;5053061;28;21180;-68
2021/07/30 12:15:09;;;;;;;4.40;4.20;;;27.70;99.90;;;;;;5053693;28;20639;-68
2021/07/30 12:17:35;;;;;;;5.30;4.00;;;28.10;99.90;;;;;;5053919;28;20599;-68
2021/07/30 12:20:06;;;;;;;8.93;4.30;;;28.30;99.90;;;;;;5054003;28;20615;-68
2021/07/30 12:22:41;;;;;;;5.30;4.63;;;28.40;99.90;;;;;;5054279;28;20622;-69
2021/07/30 12:25:11;;;;;;;4.87;4.50;;;28.50;99.90;;;;;;5053627;28;20611;-69
2021/07/30 12:27:41;;;;;;;5.30;4.57;;;28.70;99.90;;;;;;5052667;28;20576;-69
2021/07/30 12:30:08;;;;;;;5.30;4.73;;;28.70;99.90;;;;;;5053628;28;20615;-69
2021/07/30 12:32:39;;;;;;;5.40;5.00;;;28.60;99.90;;;;;;5053539;28;20606;-69
2021/07/30 12:35:14;;;;;;;5.43;5.03;;;29.10;99.90;;;;;;5053005;28;20655;-69
2021/07/30 12:38:07;;;;;;;5.03;4.43;;;28.90;99.90;;;;;;5053627;28;20622;-69
2021/07/30 12:40:40;;;;;;;5.10;4.60;;;29.20;99.90;;;;;;5053501;28;20976;-69
2021/07/30 12:43:20;;;;;;;7.20;4.77;;;28.80;99.90;;;;;;5053416;28;21083;-69
2021/07/30 12:45:49;;;;;;;4.77;4.37;;;28.90;99.90;;;;;;5053665;28;20618;-69
2021/07/30 12:48:20;;;;;;;4.80;4.50;;;28.90;99.90;;;;;;5053178;28;21215;-69
2021/07/30 12:50:50;;;;;;;5.93;4.50;;;29.00;99.90;;;;;;5053493;28;20556;-69
2021/07/30 12:53:21;;;;;;;4.90;4.60;;;30.10;99.90;;;;;;5053709;28;20634;-68